sensor_id;sensor_type;location;lat;lon;timestamp;pressure;altitude;pressure_sealevel;temperature
60936;BMP280;46804;51.786;19.520;2023-01-10T00:03:58;155502.06;;;5.28
60936;BMP280;46804;51.786;19.520;2023-01-10T00:07:59;155502.06;;;5.28
60936;BMP280;46804;51.786;19.520;2023-01-10T00:12:01;155454.78;;;5.09
60936;BMP280;46804;51.786;19.520;2023-01-10T00:16:20;155421.56;;;4.97
60936;BMP280;46804;51.786;19.520;2023-01-10T00:20:21;155393.44;;;4.86
60936;BMP280;46804;51.786;19.520;2023-01-10T00:24:22;155360.22;;;4.73
60936;BMP280;46804;51.786;19.520;2023-01-10T00:28:23;155325.75;;;4.60
60936;BMP280;46804;51.786;19.520;2023-01-10T00:32:23;155311.66;;;4.54
60936;BMP280;46804;51.786;19.520;2023-01-10T00:36:24;155325.75;;;4.60
60936;BMP280;46804;51.786;19.520;2023-01-10T00:40:25;155293.78;;;4.47
60936;BMP280;46804;51.786;19.520;2023-01-10T00:44:25;155292.53;;;4.47
60936;BMP280;46804;51.786;19.520;2023-01-10T00:48:26;155332.13;;;4.62
60936;BMP280;46804;51.786;19.520;2023-01-10T00:52:27;155286.16;;;4.44
60936;BMP280;46804;51.786;19.520;2023-01-10T00:56:27;155301.50;;;4.50
60936;BMP280;46804;51.786;19.520;2023-01-10T01:00:28;155296.38;;;4.48
60936;BMP280;46804;51.786;19.520;2023-01-10T01:04:30;155293.78;;;4.47
60936;BMP280;46804;51.786;19.520;2023-01-10T01:08:33;155323.16;;;4.59
60936;BMP280;46804;51.786;19.520;2023-01-10T01:12:34;155310.41;;;4.54
60936;BMP280;46804;51.786;19.520;2023-01-10T01:16:35;155321.91;;;4.58
60936;BMP280;46804;51.786;19.520;2023-01-10T01:20:37;155333.41;;;4.63
60936;BMP280;46804;51.786;19.520;2023-01-10T01:24:40;155364.06;;;4.74
60936;BMP280;46804;51.786;19.520;2023-01-10T01:28:41;155376.84;;;4.79
60936;BMP280;46804;51.786;19.520;2023-01-10T01:32:41;155364.06;;;4.74
60936;BMP280;46804;51.786;19.520;2023-01-10T01:36:42;155379.38;;;4.80
60936;BMP280;46804;51.786;19.520;2023-01-10T01:40:43;155364.06;;;4.74
60936;BMP280;46804;51.786;19.520;2023-01-10T01:44:44;155358.97;;;4.72
60936;BMP280;46804;51.786;19.520;2023-01-10T01:48:46;155361.50;;;4.73
60936;BMP280;46804;51.786;19.520;2023-01-10T01:52:50;155379.38;;;4.80
60936;BMP280;46804;51.786;19.520;2023-01-10T01:56:59;155357.69;;;4.72
60936;BMP280;46804;51.786;19.520;2023-01-10T02:01:02;155362.75;;;4.74
60936;BMP280;46804;51.786;19.520;2023-01-10T02:05:05;155361.50;;;4.73
60936;BMP280;46804;51.786;19.520;2023-01-10T02:09:20;155357.69;;;4.72
60936;BMP280;46804;51.786;19.520;2023-01-10T02:13:23;155353.84;;;4.71
60936;BMP280;46804;51.786;19.520;2023-01-10T02:17:25;155341.09;;;4.66
60936;BMP280;46804;51.786;19.520;2023-01-10T02:21:47;155330.84;;;4.62
60936;BMP280;46804;51.786;19.520;2023-01-10T02:26:07;155297.66;;;4.49
60936;BMP280;46804;51.786;19.520;2023-01-10T02:30:36;155268.28;;;4.38
60936;BMP280;46804;51.786;19.520;2023-01-10T02:35:05;155263.16;;;4.36
60936;BMP280;46804;51.786;19.520;2023-01-10T02:43:33;155229.97;;;4.23
60936;BMP280;46804;51.786;19.520;2023-01-10T02:47:39;155233.81;;;4.24
60936;BMP280;46804;51.786;19.520;2023-01-10T02:51:40;155226.13;;;4.21
60936;BMP280;46804;51.786;19.520;2023-01-10T03:00:32;155205.72;;;4.13
60936;BMP280;46804;51.786;19.520;2023-01-10T03:05:00;155195.50;;;4.09
60936;BMP280;46804;51.786;19.520;2023-01-10T03:17:40;155136.72;;;3.87
60936;BMP280;46804;51.786;19.520;2023-01-10T03:21:43;155132.94;;;3.85
60936;BMP280;46804;51.786;19.520;2023-01-10T03:25:45;155141.84;;;3.89
60936;BMP280;46804;51.786;19.520;2023-01-10T03:30:05;155131.63;;;3.85
60936;BMP280;46804;51.786;19.520;2023-01-10T03:34:09;155120.13;;;3.80
60936;BMP280;46804;51.786;19.520;2023-01-10T03:38:25;155131.63;;;3.85
60936;BMP280;46804;51.786;19.520;2023-01-10T03:42:39;155139.31;;;3.88
60936;BMP280;46804;51.786;19.520;2023-01-10T03:47:09;155134.19;;;3.86
60936;BMP280;46804;51.786;19.520;2023-01-10T03:51:11;155136.72;;;3.87
60936;BMP280;46804;51.786;19.520;2023-01-10T03:55:14;155148.22;;;3.91
60936;BMP280;46804;51.786;19.520;2023-01-10T03:59:26;155154.66;;;3.94
60936;BMP280;46804;51.786;19.520;2023-01-10T04:03:27;155161.03;;;3.96
60936;BMP280;46804;51.786;19.520;2023-01-10T04:07:27;155146.94;;;3.91
60936;BMP280;46804;51.786;19.520;2023-01-10T04:11:28;155143.09;;;3.89
60936;BMP280;46804;51.786;19.520;2023-01-10T04:15:30;155158.44;;;3.95
60936;BMP280;46804;51.786;19.520;2023-01-10T04:19:31;155167.41;;;3.99
60936;BMP280;46804;51.786;19.520;2023-01-10T04:23:31;155171.19;;;4.00
60936;BMP280;46804;51.786;19.520;2023-01-10T04:27:32;155175.03;;;4.02
60936;BMP280;46804;51.786;19.520;2023-01-10T04:31:33;155186.53;;;4.06
60936;BMP280;46804;51.786;19.520;2023-01-10T04:35:34;155195.50;;;4.09
60936;BMP280;46804;51.786;19.520;2023-01-10T04:39:34;155200.59;;;4.11
60936;BMP280;46804;51.786;19.520;2023-01-10T04:43:35;155203.13;;;4.12
60936;BMP280;46804;51.786;19.520;2023-01-10T04:47:35;155198.03;;;4.10
60936;BMP280;46804;51.786;19.520;2023-01-10T04:51:36;155210.78;;;4.15
60936;BMP280;46804;51.786;19.520;2023-01-10T04:55:37;155215.88;;;4.17
60936;BMP280;46804;51.786;19.520;2023-01-10T04:59:38;155213.34;;;4.16
60936;BMP280;46804;51.786;19.520;2023-01-10T05:03:39;155222.31;;;4.20
60936;BMP280;46804;51.786;19.520;2023-01-10T05:07:40;155209.50;;;4.15
60936;BMP280;46804;51.786;19.520;2023-01-10T05:11:41;155218.47;;;4.18
60936;BMP280;46804;51.786;19.520;2023-01-10T05:15:41;155223.59;;;4.20
60936;BMP280;46804;51.786;19.520;2023-01-10T05:19:42;155228.69;;;4.22
60936;BMP280;46804;51.786;19.520;2023-01-10T05:23:43;155222.31;;;4.20
60936;BMP280;46804;51.786;19.520;2023-01-10T05:27:44;155227.38;;;4.22
60936;BMP280;46804;51.786;19.520;2023-01-10T05:31:44;155228.69;;;4.22
60936;BMP280;46804;51.786;19.520;2023-01-10T05:35:45;155237.59;;;4.26
60936;BMP280;46804;51.786;19.520;2023-01-10T05:39:45;155249.09;;;4.30
60936;BMP280;46804;51.786;19.520;2023-01-10T05:43:46;155252.94;;;4.32
60936;BMP280;46804;51.786;19.520;2023-01-10T05:47:47;155232.50;;;4.24
60936;BMP280;46804;51.786;19.520;2023-01-10T05:51:48;155236.34;;;4.25
60936;BMP280;46804;51.786;19.520;2023-01-10T05:55:56;155226.13;;;4.21
60936;BMP280;46804;51.786;19.520;2023-01-10T05:59:57;155235.06;;;4.25
60936;BMP280;46804;51.786;19.520;2023-01-10T06:03:57;155223.59;;;4.20
60936;BMP280;46804;51.786;19.520;2023-01-10T06:08:00;155203.13;;;4.12
60936;BMP280;46804;51.786;19.520;2023-01-10T06:12:00;155205.72;;;4.13
60936;BMP280;46804;51.786;19.520;2023-01-10T06:16:01;155209.50;;;4.15
60936;BMP280;46804;51.786;19.520;2023-01-10T06:20:02;155208.25;;;4.14
60936;BMP280;46804;51.786;19.520;2023-01-10T06:24:04;155198.03;;;4.10
60936;BMP280;46804;51.786;19.520;2023-01-10T06:28:05;155195.50;;;4.09
60936;BMP280;46804;51.786;19.520;2023-01-10T06:32:06;155201.88;;;4.12
60936;BMP280;46804;51.786;19.520;2023-01-10T06:36:07;155196.75;;;4.10
60936;BMP280;46804;51.786;19.520;2023-01-10T06:40:09;155182.72;;;4.05
60936;BMP280;46804;51.786;19.520;2023-01-10T06:44:10;155182.72;;;4.05
60936;BMP280;46804;51.786;19.520;2023-01-10T06:48:10;155168.66;;;3.99
60936;BMP280;46804;51.786;19.520;2023-01-10T06:52:11;155184.00;;;4.05
60936;BMP280;46804;51.786;19.520;2023-01-10T06:56:12;155178.88;;;4.03
60936;BMP280;46804;51.786;19.520;2023-01-10T07:00:13;155177.63;;;4.03
60936;BMP280;46804;51.786;19.520;2023-01-10T07:04:14;155195.50;;;4.09
60936;BMP280;46804;51.786;19.520;2023-01-10T07:08:15;155201.88;;;4.12
60936;BMP280;46804;51.786;19.520;2023-01-10T07:12:15;155190.38;;;4.07
60936;BMP280;46804;51.786;19.520;2023-01-10T07:16:17;155182.72;;;4.05
60936;BMP280;46804;51.786;19.520;2023-01-10T07:20:18;155194.22;;;4.09
60936;BMP280;46804;51.786;19.520;2023-01-10T07:24:19;155213.34;;;4.16
60936;BMP280;46804;51.786;19.520;2023-01-10T07:28:19;155206.97;;;4.14
60936;BMP280;46804;51.786;19.520;2023-01-10T07:32:20;155206.97;;;4.14
60936;BMP280;46804;51.786;19.520;2023-01-10T07:36:21;155222.31;;;4.20
60936;BMP280;46804;51.786;19.520;2023-01-10T07:40:21;155232.50;;;4.24
60936;BMP280;46804;51.786;19.520;2023-01-10T07:44:22;155222.31;;;4.20
60936;BMP280;46804;51.786;19.520;2023-01-10T07:48:23;155238.88;;;4.26
60936;BMP280;46804;51.786;19.520;2023-01-10T07:52:24;155251.69;;;4.31
60936;BMP280;46804;51.786;19.520;2023-01-10T07:56:25;155252.94;;;4.32
60936;BMP280;46804;51.786;19.520;2023-01-10T08:00:25;155261.91;;;4.35
60936;BMP280;46804;51.786;19.520;2023-01-10T08:04:26;155275.94;;;4.40
60936;BMP280;46804;51.786;19.520;2023-01-10T08:08:28;155282.31;;;4.43
60936;BMP280;46804;51.786;19.520;2023-01-10T08:12:29;155290.00;;;4.46
60936;BMP280;46804;51.786;19.520;2023-01-10T08:16:29;155301.50;;;4.50
60936;BMP280;46804;51.786;19.520;2023-01-10T08:20:30;155306.56;;;4.52
60936;BMP280;46804;51.786;19.520;2023-01-10T08:24:31;155337.25;;;4.64
60936;BMP280;46804;51.786;19.520;2023-01-10T08:28:32;155325.75;;;4.60
60936;BMP280;46804;51.786;19.520;2023-01-10T08:32:32;155346.19;;;4.68
60936;BMP280;46804;51.786;19.520;2023-01-10T08:36:33;155358.97;;;4.72
60936;BMP280;46804;51.786;19.520;2023-01-10T08:40:34;155367.88;;;4.76
60936;BMP280;46804;51.786;19.520;2023-01-10T08:44:35;155370.47;;;4.77
60936;BMP280;46804;51.786;19.520;2023-01-10T08:48:36;155387.06;;;4.83
60936;BMP280;46804;51.786;19.520;2023-01-10T08:52:37;155413.91;;;4.94
60936;BMP280;46804;51.786;19.520;2023-01-10T08:56:39;155426.69;;;4.99
60936;BMP280;46804;51.786;19.520;2023-01-10T09:00:39;155435.59;;;5.02
60936;BMP280;46804;51.786;19.520;2023-01-10T09:04:40;155430.47;;;5.00
60936;BMP280;46804;51.786;19.520;2023-01-10T09:08:41;155456.06;;;5.10
60936;BMP280;46804;51.786;19.520;2023-01-10T09:12:42;155473.94;;;5.17
60936;BMP280;46804;51.786;19.520;2023-01-10T09:16:54;155488.00;;;5.22
60936;BMP280;46804;51.786;19.520;2023-01-10T09:20:54;155466.28;;;5.14
60936;BMP280;46804;51.786;19.520;2023-01-10T09:24:55;155495.66;;;5.25
60936;BMP280;46804;51.786;19.520;2023-01-10T09:28:56;155496.94;;;5.26
60936;BMP280;46804;51.786;19.520;2023-01-10T09:32:57;155527.63;;;5.38
60936;BMP280;46804;51.786;19.520;2023-01-10T09:36:58;155537.81;;;5.41
60936;BMP280;46804;51.786;19.520;2023-01-10T09:45:29;155532.75;;;5.40
60936;BMP280;46804;51.786;19.520;2023-01-10T09:53:58;155558.28;;;5.49
60936;BMP280;46804;51.786;19.520;2023-01-10T09:58:03;155586.41;;;5.60
60936;BMP280;46804;51.786;19.520;2023-01-10T10:06:22;155582.56;;;5.59
60936;BMP280;46804;51.786;19.520;2023-01-10T10:10:26;155577.50;;;5.57
60936;BMP280;46804;51.786;19.520;2023-01-10T10:18:48;155576.19;;;5.56
60936;BMP280;46804;51.786;19.520;2023-01-10T10:27:23;155631.22;;;5.77
60936;BMP280;46804;51.786;19.520;2023-01-10T10:35:40;155686.22;;;5.99
60936;BMP280;46804;51.786;19.520;2023-01-10T10:39:55;155707.97;;;6.07
60936;BMP280;46804;51.786;19.520;2023-01-10T10:43:58;155688.75;;;6.00
60936;BMP280;46804;51.786;19.520;2023-01-10T10:48:18;155719.47;;;6.11
60936;BMP280;46804;51.786;19.520;2023-01-10T10:52:28;155737.38;;;6.18
60936;BMP280;46804;51.786;19.520;2023-01-10T10:56:34;155750.13;;;6.23
60936;BMP280;46804;51.786;19.520;2023-01-10T11:00:35;155768.03;;;6.30
60936;BMP280;46804;51.786;19.520;2023-01-10T11:04:35;155791.06;;;6.39
60936;BMP280;46804;51.786;19.520;2023-01-10T11:08:38;155802.56;;;6.43
60936;BMP280;46804;51.786;19.520;2023-01-10T11:12:45;155800.03;;;6.43
60936;BMP280;46804;51.786;19.520;2023-01-10T11:16:47;155837.16;;;6.57
60936;BMP280;46804;51.786;19.520;2023-01-10T11:20:58;155803.88;;;6.44
60936;BMP280;46804;51.786;19.520;2023-01-10T11:25:01;155801.31;;;6.43
60936;BMP280;46804;51.786;19.520;2023-01-10T11:29:12;155787.25;;;6.38
60936;BMP280;46804;51.786;19.520;2023-01-10T11:33:20;155848.66;;;6.61
60936;BMP280;46804;51.786;19.520;2023-01-10T11:37:33;155880.63;;;6.74
60936;BMP280;46804;51.786;19.520;2023-01-10T11:41:34;155883.22;;;6.75
60936;BMP280;46804;51.786;19.520;2023-01-10T11:45:35;155879.34;;;6.73
60936;BMP280;46804;51.786;19.520;2023-01-10T11:49:39;155897.25;;;6.80
60936;BMP280;46804;51.786;19.520;2023-01-10T11:53:42;155847.34;;;6.61
60936;BMP280;46804;51.786;19.520;2023-01-10T11:57:44;155872.97;;;6.71
60936;BMP280;46804;51.786;19.520;2023-01-10T12:02:32;155862.72;;;6.67
60936;BMP280;46804;51.786;19.520;2023-01-10T12:06:34;155866.56;;;6.68
60936;BMP280;46804;51.786;19.520;2023-01-10T12:10:34;155860.19;;;6.66
60936;BMP280;46804;51.786;19.520;2023-01-10T12:14:35;155829.44;;;6.54
60936;BMP280;46804;51.786;19.520;2023-01-10T12:18:35;155792.38;;;6.40
60936;BMP280;46804;51.786;19.520;2023-01-10T12:22:39;155810.28;;;6.46
60936;BMP280;46804;51.786;19.520;2023-01-10T12:26:41;155783.41;;;6.36
60936;BMP280;46804;51.786;19.520;2023-01-10T12:30:42;155791.06;;;6.39
60936;BMP280;46804;51.786;19.520;2023-01-10T12:34:56;155793.66;;;6.40
60936;BMP280;46804;51.786;19.520;2023-01-10T12:39:13;155796.19;;;6.41
60936;BMP280;46804;51.786;19.520;2023-01-10T12:43:33;155769.34;;;6.31
60936;BMP280;46804;51.786;19.520;2023-01-10T12:48:19;155796.19;;;6.41
60936;BMP280;46804;51.786;19.520;2023-01-10T12:52:45;155820.50;;;6.50
60936;BMP280;46804;51.786;19.520;2023-01-10T12:56:48;155844.81;;;6.60
60936;BMP280;46804;51.786;19.520;2023-01-10T13:00:52;155820.50;;;6.50
60936;BMP280;46804;51.786;19.520;2023-01-10T13:04:57;155807.69;;;6.45
60936;BMP280;46804;51.786;19.520;2023-01-10T13:09:04;155834.56;;;6.56
60936;BMP280;46804;51.786;19.520;2023-01-10T13:13:29;155857.59;;;6.65
60936;BMP280;46804;51.786;19.520;2023-01-10T13:21:33;155801.31;;;6.43
60936;BMP280;46804;51.786;19.520;2023-01-10T13:25:35;155810.28;;;6.46
60936;BMP280;46804;51.786;19.520;2023-01-10T13:29:39;155779.53;;;6.35
60936;BMP280;46804;51.786;19.520;2023-01-10T13:33:52;155797.44;;;6.42
60936;BMP280;46804;51.786;19.520;2023-01-10T13:37:55;155768.03;;;6.30
60936;BMP280;46804;51.786;19.520;2023-01-10T13:54:28;155723.25;;;6.13
60936;BMP280;46804;51.786;19.520;2023-01-10T13:58:39;155732.25;;;6.16
60936;BMP280;46804;51.786;19.520;2023-01-10T14:02:59;155742.47;;;6.20
60936;BMP280;46804;51.786;19.520;2023-01-10T14:07:02;155752.72;;;6.24
60936;BMP280;46804;51.786;19.520;2023-01-10T14:11:08;155724.59;;;6.13
60936;BMP280;46804;51.786;19.520;2023-01-10T14:15:28;155668.31;;;5.92
60936;BMP280;46804;51.786;19.520;2023-01-10T14:19:32;155670.84;;;5.93
60936;BMP280;46804;51.786;19.520;2023-01-10T14:23:35;155654.22;;;5.86
60936;BMP280;46804;51.786;19.520;2023-01-10T14:27:45;155629.94;;;5.77
60936;BMP280;46804;51.786;19.520;2023-01-10T14:31:48;155631.22;;;5.77
60936;BMP280;46804;51.786;19.520;2023-01-10T14:35:53;155663.19;;;5.90
60936;BMP280;46804;51.786;19.520;2023-01-10T14:39:55;155679.81;;;5.96
60936;BMP280;46804;51.786;19.520;2023-01-10T14:47:59;155686.22;;;5.99
60936;BMP280;46804;51.786;19.520;2023-01-10T14:52:22;155678.50;;;5.96
60936;BMP280;46804;51.786;19.520;2023-01-10T14:56:26;155675.97;;;5.95
60936;BMP280;46804;51.786;19.520;2023-01-10T15:00:30;155670.84;;;5.93
60936;BMP280;46804;51.786;19.520;2023-01-10T15:04:32;155658.06;;;5.88
60936;BMP280;46804;51.786;19.520;2023-01-10T15:08:34;155614.53;;;5.71
60936;BMP280;46804;51.786;19.520;2023-01-10T15:12:36;155605.63;;;5.68
60936;BMP280;46804;51.786;19.520;2023-01-10T15:16:38;155610.69;;;5.70
60936;BMP280;46804;51.786;19.520;2023-01-10T15:20:40;155601.78;;;5.66
60936;BMP280;46804;51.786;19.520;2023-01-10T15:24:40;155596.66;;;5.64
60936;BMP280;46804;51.786;19.520;2023-01-10T15:28:44;155601.78;;;5.66
60936;BMP280;46804;51.786;19.520;2023-01-10T15:32:51;155604.31;;;5.67
60936;BMP280;46804;51.786;19.520;2023-01-10T15:36:54;155604.31;;;5.67
60936;BMP280;46804;51.786;19.520;2023-01-10T15:40:58;155577.50;;;5.57
60936;BMP280;46804;51.786;19.520;2023-01-10T15:45:29;155568.53;;;5.53
60936;BMP280;46804;51.786;19.520;2023-01-10T15:49:37;155589.00;;;5.61
60936;BMP280;46804;51.786;19.520;2023-01-10T15:54:00;155555.75;;;5.48
60936;BMP280;46804;51.786;19.520;2023-01-10T15:58:33;155576.19;;;5.56
60936;BMP280;46804;51.786;19.520;2023-01-10T16:02:35;155534.03;;;5.40
60936;BMP280;46804;51.786;19.520;2023-01-10T16:06:37;155542.94;;;5.43
60936;BMP280;46804;51.786;19.520;2023-01-10T16:10:38;155527.63;;;5.38
60936;BMP280;46804;51.786;19.520;2023-01-10T16:14:39;155546.78;;;5.45
60936;BMP280;46804;51.786;19.520;2023-01-10T16:18:40;155563.41;;;5.51
60936;BMP280;46804;51.786;19.520;2023-01-10T16:22:42;155550.66;;;5.46
60936;BMP280;46804;51.786;19.520;2023-01-10T16:26:44;155518.66;;;5.34
60936;BMP280;46804;51.786;19.520;2023-01-10T16:30:45;155545.53;;;5.44
60936;BMP280;46804;51.786;19.520;2023-01-10T16:34:47;155546.78;;;5.45
60936;BMP280;46804;51.786;19.520;2023-01-10T16:38:48;155527.63;;;5.38
60936;BMP280;46804;51.786;19.520;2023-01-10T16:42:49;155537.81;;;5.41
60936;BMP280;46804;51.786;19.520;2023-01-10T16:47:08;155493.13;;;5.24
60936;BMP280;46804;51.786;19.520;2023-01-10T16:55:22;155526.31;;;5.37
60936;BMP280;46804;51.786;19.520;2023-01-10T16:59:24;155494.41;;;5.25
60936;BMP280;46804;51.786;19.520;2023-01-10T17:03:25;155488.00;;;5.22
60936;BMP280;46804;51.786;19.520;2023-01-10T17:07:26;155519.94;;;5.35
60936;BMP280;46804;51.786;19.520;2023-01-10T17:11:30;155485.44;;;5.21
60936;BMP280;46804;51.786;19.520;2023-01-10T17:15:32;155504.63;;;5.29
60936;BMP280;46804;51.786;19.520;2023-01-10T17:19:34;155509.75;;;5.31
60936;BMP280;46804;51.786;19.520;2023-01-10T17:23:36;155518.66;;;5.34
60936;BMP280;46804;51.786;19.520;2023-01-10T17:27:37;155499.53;;;5.27
60936;BMP280;46804;51.786;19.520;2023-01-10T17:31:39;155509.75;;;5.31
60936;BMP280;46804;51.786;19.520;2023-01-10T17:35:40;155516.13;;;5.33
60936;BMP280;46804;51.786;19.520;2023-01-10T17:39:41;155519.94;;;5.35
60936;BMP280;46804;51.786;19.520;2023-01-10T17:43:42;155535.28;;;5.40
60936;BMP280;46804;51.786;19.520;2023-01-10T17:47:42;155544.25;;;5.44
60936;BMP280;46804;51.786;19.520;2023-01-10T17:51:43;155537.81;;;5.41
60936;BMP280;46804;51.786;19.520;2023-01-10T17:55:45;155546.78;;;5.45
60936;BMP280;46804;51.786;19.520;2023-01-10T17:59:46;155546.78;;;5.45
60936;BMP280;46804;51.786;19.520;2023-01-10T18:03:46;155557.03;;;5.49
60936;BMP280;46804;51.786;19.520;2023-01-10T18:07:49;155550.66;;;5.46
60936;BMP280;46804;51.786;19.520;2023-01-10T18:11:50;155560.88;;;5.50
60936;BMP280;46804;51.786;19.520;2023-01-10T18:15:52;155563.41;;;5.51
60936;BMP280;46804;51.786;19.520;2023-01-10T18:19:52;155554.44;;;5.48
60936;BMP280;46804;51.786;19.520;2023-01-10T18:23:53;155563.41;;;5.51
60936;BMP280;46804;51.786;19.520;2023-01-10T18:27:56;155546.78;;;5.45
60936;BMP280;46804;51.786;19.520;2023-01-10T18:31:57;155550.66;;;5.46
60936;BMP280;46804;51.786;19.520;2023-01-10T18:36:01;155546.78;;;5.45
60936;BMP280;46804;51.786;19.520;2023-01-10T18:40:03;155542.94;;;5.43
60936;BMP280;46804;51.786;19.520;2023-01-10T18:44:04;155539.13;;;5.42
60936;BMP280;46804;51.786;19.520;2023-01-10T18:48:05;155531.44;;;5.39
60936;BMP280;46804;51.786;19.520;2023-01-10T18:52:05;155562.13;;;5.51
60936;BMP280;46804;51.786;19.520;2023-01-10T18:56:07;155551.91;;;5.47
60936;BMP280;46804;51.786;19.520;2023-01-10T19:00:08;155527.63;;;5.38
60936;BMP280;46804;51.786;19.520;2023-01-10T19:04:09;155537.81;;;5.41
60936;BMP280;46804;51.786;19.520;2023-01-10T19:08:10;155531.44;;;5.39
60936;BMP280;46804;51.786;19.520;2023-01-10T19:12:13;155537.81;;;5.41
60936;BMP280;46804;51.786;19.520;2023-01-10T19:16:16;155558.28;;;5.49
60936;BMP280;46804;51.786;19.520;2023-01-10T19:20:17;155536.56;;;5.41
60936;BMP280;46804;51.786;19.520;2023-01-10T19:24:23;155546.78;;;5.45
60936;BMP280;46804;51.786;19.520;2023-01-10T19:28:27;155565.94;;;5.52
60936;BMP280;46804;51.786;19.520;2023-01-10T19:32:28;155559.56;;;5.50
60936;BMP280;46804;51.786;19.520;2023-01-10T19:36:29;155548.06;;;5.45
60936;BMP280;46804;51.786;19.520;2023-01-10T19:40:34;155551.91;;;5.47
60936;BMP280;46804;51.786;19.520;2023-01-10T19:44:34;155577.50;;;5.57
60936;BMP280;46804;51.786;19.520;2023-01-10T19:48:35;155555.75;;;5.48
60936;BMP280;46804;51.786;19.520;2023-01-10T19:52:37;155545.53;;;5.44
60936;BMP280;46804;51.786;19.520;2023-01-10T19:56:38;155555.75;;;5.48
60936;BMP280;46804;51.786;19.520;2023-01-10T20:00:39;155558.28;;;5.49
60936;BMP280;46804;51.786;19.520;2023-01-10T20:04:39;155550.66;;;5.46
60936;BMP280;46804;51.786;19.520;2023-01-10T20:08:40;155541.69;;;5.43
60936;BMP280;46804;51.786;19.520;2023-01-10T20:12:40;155553.16;;;5.47
60936;BMP280;46804;51.786;19.520;2023-01-10T20:16:41;155550.66;;;5.46
60936;BMP280;46804;51.786;19.520;2023-01-10T20:20:42;155551.91;;;5.47
60936;BMP280;46804;51.786;19.520;2023-01-10T20:24:44;155550.66;;;5.46
60936;BMP280;46804;51.786;19.520;2023-01-10T20:28:45;155545.53;;;5.44
60936;BMP280;46804;51.786;19.520;2023-01-10T20:32:47;155545.53;;;5.44
60936;BMP280;46804;51.786;19.520;2023-01-10T20:36:49;155537.81;;;5.41
60936;BMP280;46804;51.786;19.520;2023-01-10T20:40:56;155545.53;;;5.44
60936;BMP280;46804;51.786;19.520;2023-01-10T20:44:56;155532.75;;;5.40
60936;BMP280;46804;51.786;19.520;2023-01-10T20:48:57;155532.75;;;5.40
60936;BMP280;46804;51.786;19.520;2023-01-10T20:52:58;155559.56;;;5.50
60936;BMP280;46804;51.786;19.520;2023-01-10T20:56:59;155558.28;;;5.49
60936;BMP280;46804;51.786;19.520;2023-01-10T21:01:00;155558.28;;;5.49
60936;BMP280;46804;51.786;19.520;2023-01-10T21:05:00;155535.28;;;5.40
60936;BMP280;46804;51.786;19.520;2023-01-10T21:09:02;155545.53;;;5.44
60936;BMP280;46804;51.786;19.520;2023-01-10T21:13:02;155553.16;;;5.47
60936;BMP280;46804;51.786;19.520;2023-01-10T21:17:03;155549.38;;;5.46
60936;BMP280;46804;51.786;19.520;2023-01-10T21:21:04;155546.78;;;5.45
60936;BMP280;46804;51.786;19.520;2023-01-10T21:25:05;155525.06;;;5.37
60936;BMP280;46804;51.786;19.520;2023-01-10T21:29:06;155536.56;;;5.41
60936;BMP280;46804;51.786;19.520;2023-01-10T21:33:08;155522.53;;;5.36
60936;BMP280;46804;51.786;19.520;2023-01-10T21:37:09;155522.53;;;5.36
60936;BMP280;46804;51.786;19.520;2023-01-10T21:41:15;155540.41;;;5.42
60936;BMP280;46804;51.786;19.520;2023-01-10T21:45:35;155534.03;;;5.40
60936;BMP280;46804;51.786;19.520;2023-01-10T21:49:36;155531.44;;;5.39
60936;BMP280;46804;51.786;19.520;2023-01-10T21:53:37;155544.25;;;5.44
60936;BMP280;46804;51.786;19.520;2023-01-10T21:57:40;155545.53;;;5.44
60936;BMP280;46804;51.786;19.520;2023-01-10T22:01:41;155563.41;;;5.51
60936;BMP280;46804;51.786;19.520;2023-01-10T22:05:42;155553.16;;;5.47
60936;BMP280;46804;51.786;19.520;2023-01-10T22:09:43;155555.75;;;5.48
60936;BMP280;46804;51.786;19.520;2023-01-10T22:13:43;155558.28;;;5.49
60936;BMP280;46804;51.786;19.520;2023-01-10T22:17:44;155531.44;;;5.39
60936;BMP280;46804;51.786;19.520;2023-01-10T22:21:47;155544.25;;;5.44
60936;BMP280;46804;51.786;19.520;2023-01-10T22:26:05;155539.13;;;5.42
60936;BMP280;46804;51.786;19.520;2023-01-10T22:30:07;155535.28;;;5.40
60936;BMP280;46804;51.786;19.520;2023-01-10T22:34:08;155546.78;;;5.45
60936;BMP280;46804;51.786;19.520;2023-01-10T22:38:09;155559.56;;;5.50
60936;BMP280;46804;51.786;19.520;2023-01-10T22:42:09;155550.66;;;5.46
60936;BMP280;46804;51.786;19.520;2023-01-10T22:46:11;155564.69;;;5.52
60936;BMP280;46804;51.786;19.520;2023-01-10T22:50:17;155546.78;;;5.45
60936;BMP280;46804;51.786;19.520;2023-01-10T22:54:18;155539.13;;;5.42
60936;BMP280;46804;51.786;19.520;2023-01-10T22:58:20;155540.41;;;5.42
60936;BMP280;46804;51.786;19.520;2023-01-10T23:02:20;155532.75;;;5.40
60936;BMP280;46804;51.786;19.520;2023-01-10T23:06:21;155522.53;;;5.36
60936;BMP280;46804;51.786;19.520;2023-01-10T23:10:22;155522.53;;;5.36
60936;BMP280;46804;51.786;19.520;2023-01-10T23:14:23;155519.94;;;5.35
60936;BMP280;46804;51.786;19.520;2023-01-10T23:18:24;155519.94;;;5.35
60936;BMP280;46804;51.786;19.520;2023-01-10T23:22:25;155514.81;;;5.33
60936;BMP280;46804;51.786;19.520;2023-01-10T23:26:25;155530.16;;;5.39
60936;BMP280;46804;51.786;19.520;2023-01-10T23:30:26;155540.41;;;5.42
60936;BMP280;46804;51.786;19.520;2023-01-10T23:34:28;155526.31;;;5.37
60936;BMP280;46804;51.786;19.520;2023-01-10T23:38:29;155500.78;;;5.27
60936;BMP280;46804;51.786;19.520;2023-01-10T23:42:30;155522.53;;;5.36
60936;BMP280;46804;51.786;19.520;2023-01-10T23:46:30;155494.41;;;5.25
60936;BMP280;46804;51.786;19.520;2023-01-10T23:50:31;155491.81;;;5.24
60936;BMP280;46804;51.786;19.520;2023-01-10T23:54:31;155493.13;;;5.24
60936;BMP280;46804;51.786;19.520;2023-01-10T23:58:32;155484.16;;;5.21
